Bookmark and Share
Track history (hours):
 

Palmelense

Last reported at 2014-Apr-23 08:34 UTC. Time now 2014-Apr-23 09:12 UTC.
Position N 38°41' W 009°14'.

Length 32 m; draft 1.9 m.

Type: Passenger vessel. MMSI: 263701740.

NotesDate/timePositionNaut miles runAvg speedWind from/ knotsBaromVisibWave heightAir tempDewpointWater temp
2014-Apr-23 08:34N 38°41' W 009°14'0 0.1
2014-Apr-23 07:33N 38°41' W 009°14'0 0.2
2014-Apr-23 06:34N 38°41' W 009°13'0 0.5
2014-Apr-23 05:33N 38°41' W 009°13'0 0.0
2014-Apr-22 21:26N 38°41' W 009°12'1 0.9
2014-Apr-22 20:33N 38°41' W 009°13'0 0.0
2014-Apr-22 19:33N 38°41' W 009°13'1 1.3
2014-Apr-22 18:33N 38°41' W 009°12'0 0.0
2014-Apr-22 17:33N 38°41' W 009°12'0 0.2
2014-Apr-22 16:33N 38°42' W 009°12'0 0.1
2014-Apr-22 15:33N 38°41' W 009°12'0 0.1
2014-Apr-22 14:33N 38°41' W 009°12'0 0.2
2014-Apr-22 12:33N 38°41' W 009°13'0 0.3
2014-Apr-22 11:33N 38°41' W 009°12'0 0.1
2014-Apr-22 10:33N 38°41' W 009°12'2 1.5
2014-Apr-22 09:33N 38°40' W 009°14'0 0.3
2014-Apr-22 08:33N 38°41' W 009°14'0 0.1
2014-Apr-22 07:33N 38°41' W 009°13'0 0.0
2014-Apr-22 06:33N 38°41' W 009°13'0 0.4
2014-Apr-22 05:33N 38°41' W 009°13'0 0.0
2014-Apr-21 21:26N 38°41' W 009°12'1 0.8
2014-Apr-21 20:33N 38°41' W 009°13'0 0.1
2014-Apr-21 19:33N 38°41' W 009°13'1 1.1
2014-Apr-21 18:33N 38°41' W 009°12'0 0.4
2014-Apr-21 17:33N 38°42' W 009°12'0 0.3
2014-Apr-21 16:33N 38°41' W 009°12'0 0.1
2014-Apr-21 15:33N 38°41' W 009°12'0 0.4
2014-Apr-21 14:33N 38°42' W 009°12'0 0.2
2014-Apr-21 12:33N 38°41' W 009°12'0 0.2
2014-Apr-21 11:33N 38°41' W 009°12'0 0.0
2014-Apr-21 10:33N 38°41' W 009°12'2 1.6
2014-Apr-21 09:33N 38°40' W 009°14'0 0.3
2014-Apr-21 08:33N 38°41' W 009°14'0 0.0
2014-Apr-20 11:18N 38°41' W 009°14'1 0.9
2014-Apr-20 10:08N 38°41' W 009°13'1 0.0
2014-Apr-19 12:34N 38°41' W 009°13'0 0.1
2014-Apr-19 11:33N 38°41' W 009°13'0 0.0
2014-Apr-19 10:33N 38°41' W 009°13'1 1.1
2014-Apr-19 09:34N 38°41' W 009°12'0 0.2
2014-Apr-19 08:33N 38°41' W 009°12'0 0.1
2014-Apr-19 07:33N 38°41' W 009°12'0 0.0
2014-Apr-19 06:33N 38°41' W 009°12'1 0.6
2014-Apr-19 05:34N 38°41' W 009°12'1 0.1
2014-Apr-18 20:33N 38°41' W 009°12'2 1.6
2014-Apr-18 19:33N 38°40' W 009°14'0 0.3
2014-Apr-18 18:33N 38°41' W 009°14'1 1.4
2014-Apr-18 17:33N 38°41' W 009°12'0 0.1
2014-Apr-18 16:33N 38°41' W 009°12'0 0.1
2014-Apr-18 15:33N 38°41' W 009°12'0 0.3
2014-Apr-18 14:33N 38°42' W 009°12'1 0.9
2014-Apr-18 13:33N 38°41' W 009°12'1 0.8
2014-Apr-18 12:33N 38°41' W 009°13'0 0.1
2014-Apr-18 11:33N 38°41' W 009°13'0 0.2
2014-Apr-18 10:33N 38°41' W 009°14'0 0.1
2014-Apr-18 09:33N 38°41' W 009°14'1 1.4
2014-Apr-18 08:33N 38°41' W 009°12'0 0.3
2014-Apr-18 07:33N 38°42' W 009°12'1 1.1
2014-Apr-18 06:33N 38°41' W 009°12'0 0.0
2014-Apr-17 21:30N 38°41' W 009°12'1 1.0
2014-Apr-17 20:34N 38°41' W 009°14'0 0.0
2014-Apr-17 19:33N 38°41' W 009°14'1 1.3
2014-Apr-17 18:33N 38°41' W 009°12'0 0.1
2014-Apr-17 17:33N 38°41' W 009°12'0 0.4
2014-Apr-17 16:34N 38°42' W 009°12'0 0.3
2014-Apr-17 15:34N 38°41' W 009°12'0 0.2
2014-Apr-17 14:33N 38°42' W 009°12'0 0.1
2014-Apr-17 12:34N 38°42' W 009°12'0 0.1
2014-Apr-17 11:33N 38°41' W 009°12'0 0.3
2014-Apr-17 10:34N 38°42' W 009°12'2 1.9
2014-Apr-17 09:34N 38°40' W 009°14'0 0.3
2014-Apr-17 08:34N 38°41' W 009°13'0 0.1
2014-Apr-17 07:34N 38°41' W 009°14'4 3.8
2014-Apr-17 06:34N 38°41' W 009°09'0 0.0
2014-Apr-16 08:34N 38°41' W 009°09'0 0.0
2014-Apr-15 08:32N 38°41' W 009°09'0 0.0
2014-Apr-15 07:33N 38°41' W 009°09'0 0.0
2014-Apr-15 06:33N 38°41' W 009°09'0 0.0
2014-Apr-14 11:34N 38°41' W 009°09'0 0.0
2014-Apr-14 08:33N 38°41' W 009°09'0 0.0
2014-Apr-14 07:33N 38°41' W 009°09'0 0.0
2014-Apr-13 17:33N 38°41' W 009°09'0 0.0
2014-Apr-13 16:33N 38°41' W 009°09'  

Dump ship's entire track history

sailing weather and tide predictions

Palmelense — CSSL — position and weather